sensor_id;sensor_type;location;lat;lon;timestamp;P1;durP1;ratioP1;P2;durP2;ratioP2
19780;SDS011;10050;55.492;13.506;2022-07-22T00:02:23;4.20;;;2.00;;
19780;SDS011;10050;55.492;13.506;2022-07-22T00:04:49;3.47;;;2.13;;
19780;SDS011;10050;55.492;13.506;2022-07-22T00:07:15;2.40;;;1.90;;
19780;SDS011;10050;55.492;13.506;2022-07-22T00:09:40;4.40;;;2.27;;
19780;SDS011;10050;55.492;13.506;2022-07-22T00:12:06;3.80;;;2.40;;
19780;SDS011;10050;55.492;13.506;2022-07-22T00:14:32;2.70;;;2.20;;
19780;SDS011;10050;55.492;13.506;2022-07-22T00:16:58;3.57;;;2.63;;
19780;SDS011;10050;55.492;13.506;2022-07-22T00:19:24;3.60;;;2.60;;
19780;SDS011;10050;55.492;13.506;2022-07-22T00:21:51;3.37;;;2.17;;
19780;SDS011;10050;55.492;13.506;2022-07-22T00:24:17;4.07;;;2.40;;
19780;SDS011;10050;55.492;13.506;2022-07-22T00:26:43;2.70;;;1.80;;
19780;SDS011;10050;55.492;13.506;2022-07-22T00:29:08;3.10;;;2.43;;
19780;SDS011;10050;55.492;13.506;2022-07-22T00:31:34;3.93;;;2.13;;
19780;SDS011;10050;55.492;13.506;2022-07-22T00:34:00;2.57;;;1.93;;
19780;SDS011;10050;55.492;13.506;2022-07-22T00:36:27;4.90;;;2.30;;
19780;SDS011;10050;55.492;13.506;2022-07-22T00:38:54;3.23;;;1.70;;
19780;SDS011;10050;55.492;13.506;2022-07-22T00:41:19;1.97;;;1.77;;
19780;SDS011;10050;55.492;13.506;2022-07-22T00:43:49;2.90;;;2.07;;
19780;SDS011;10050;55.492;13.506;2022-07-22T00:46:15;4.13;;;2.23;;
19780;SDS011;10050;55.492;13.506;2022-07-22T00:48:41;2.33;;;1.90;;
19780;SDS011;10050;55.492;13.506;2022-07-22T00:51:07;3.37;;;2.47;;
19780;SDS011;10050;55.492;13.506;2022-07-22T00:53:32;6.13;;;2.27;;
19780;SDS011;10050;55.492;13.506;2022-07-22T00:55:58;4.00;;;1.83;;
19780;SDS011;10050;55.492;13.506;2022-07-22T00:58:24;3.57;;;2.70;;
19780;SDS011;10050;55.492;13.506;2022-07-22T01:00:49;4.77;;;2.97;;
19780;SDS011;10050;55.492;13.506;2022-07-22T01:03:15;3.37;;;2.17;;
19780;SDS011;10050;55.492;13.506;2022-07-22T01:05:41;2.87;;;2.57;;
19780;SDS011;10050;55.492;13.506;2022-07-22T01:08:07;4.50;;;2.43;;
19780;SDS011;10050;55.492;13.506;2022-07-22T01:10:33;3.03;;;2.47;;
19780;SDS011;10050;55.492;13.506;2022-07-22T01:12:59;4.57;;;2.83;;
19780;SDS011;10050;55.492;13.506;2022-07-22T01:15:25;5.77;;;2.93;;
19780;SDS011;10050;55.492;13.506;2022-07-22T01:17:50;4.03;;;2.47;;
19780;SDS011;10050;55.492;13.506;2022-07-22T01:20:16;3.57;;;2.73;;
19780;SDS011;10050;55.492;13.506;2022-07-22T01:22:42;6.13;;;2.80;;
19780;SDS011;10050;55.492;13.506;2022-07-22T01:25:09;6.27;;;3.40;;
19780;SDS011;10050;55.492;13.506;2022-07-22T01:27:36;6.03;;;3.40;;
19780;SDS011;10050;55.492;13.506;2022-07-22T01:30:02;7.83;;;3.53;;
19780;SDS011;10050;55.492;13.506;2022-07-22T01:32:29;4.23;;;3.13;;
19780;SDS011;10050;55.492;13.506;2022-07-22T01:34:55;4.13;;;2.83;;
19780;SDS011;10050;55.492;13.506;2022-07-22T01:37:20;6.20;;;3.40;;
19780;SDS011;10050;55.492;13.506;2022-07-22T01:39:47;4.97;;;3.17;;
19780;SDS011;10050;55.492;13.506;2022-07-22T01:42:13;7.50;;;3.63;;
19780;SDS011;10050;55.492;13.506;2022-07-22T01:44:39;7.57;;;3.40;;
19780;SDS011;10050;55.492;13.506;2022-07-22T01:47:05;5.03;;;3.63;;
19780;SDS011;10050;55.492;13.506;2022-07-22T01:49:31;5.07;;;3.10;;
19780;SDS011;10050;55.492;13.506;2022-07-22T01:51:56;4.80;;;2.97;;
19780;SDS011;10050;55.492;13.506;2022-07-22T01:54:22;5.47;;;3.33;;
19780;SDS011;10050;55.492;13.506;2022-07-22T01:56:47;5.93;;;3.33;;
19780;SDS011;10050;55.492;13.506;2022-07-22T01:59:13;5.60;;;3.57;;
19780;SDS011;10050;55.492;13.506;2022-07-22T02:01:39;6.63;;;4.30;;
19780;SDS011;10050;55.492;13.506;2022-07-22T02:04:04;6.27;;;3.83;;
19780;SDS011;10050;55.492;13.506;2022-07-22T02:06:30;3.83;;;3.20;;
19780;SDS011;10050;55.492;13.506;2022-07-22T02:08:56;6.10;;;3.97;;
19780;SDS011;10050;55.492;13.506;2022-07-22T02:11:21;6.90;;;3.60;;
19780;SDS011;10050;55.492;13.506;2022-07-22T02:13:47;4.80;;;3.40;;
19780;SDS011;10050;55.492;13.506;2022-07-22T02:16:13;7.60;;;3.47;;
19780;SDS011;10050;55.492;13.506;2022-07-22T02:18:38;4.33;;;3.23;;
19780;SDS011;10050;55.492;13.506;2022-07-22T02:21:04;6.07;;;3.67;;
19780;SDS011;10050;55.492;13.506;2022-07-22T02:23:30;5.23;;;3.73;;
19780;SDS011;10050;55.492;13.506;2022-07-22T02:25:55;5.90;;;3.97;;
19780;SDS011;10050;55.492;13.506;2022-07-22T02:28:21;7.10;;;3.53;;
19780;SDS011;10050;55.492;13.506;2022-07-22T02:30:47;8.03;;;4.20;;
19780;SDS011;10050;55.492;13.506;2022-07-22T02:33:12;5.67;;;3.53;;
19780;SDS011;10050;55.492;13.506;2022-07-22T02:35:39;7.63;;;4.20;;
19780;SDS011;10050;55.492;13.506;2022-07-22T02:38:05;9.23;;;3.90;;
19780;SDS011;10050;55.492;13.506;2022-07-22T02:40:31;10.40;;;4.17;;
19780;SDS011;10050;55.492;13.506;2022-07-22T02:42:56;7.23;;;4.00;;
19780;SDS011;10050;55.492;13.506;2022-07-22T02:45:22;9.97;;;4.20;;
19780;SDS011;10050;55.492;13.506;2022-07-22T02:47:52;6.67;;;3.50;;
19780;SDS011;10050;55.492;13.506;2022-07-22T02:50:20;8.53;;;5.17;;
19780;SDS011;10050;55.492;13.506;2022-07-22T02:52:46;6.13;;;3.20;;
19780;SDS011;10050;55.492;13.506;2022-07-22T02:55:12;8.10;;;4.17;;
19780;SDS011;10050;55.492;13.506;2022-07-22T02:57:38;6.37;;;4.13;;
19780;SDS011;10050;55.492;13.506;2022-07-22T03:00:04;5.60;;;3.90;;
19780;SDS011;10050;55.492;13.506;2022-07-22T03:02:33;7.03;;;4.30;;
19780;SDS011;10050;55.492;13.506;2022-07-22T03:04:59;7.87;;;4.13;;
19780;SDS011;10050;55.492;13.506;2022-07-22T03:07:24;5.20;;;3.90;;
19780;SDS011;10050;55.492;13.506;2022-07-22T03:09:50;5.80;;;4.63;;
19780;SDS011;10050;55.492;13.506;2022-07-22T03:12:16;9.57;;;6.23;;
19780;SDS011;10050;55.492;13.506;2022-07-22T03:14:41;6.60;;;4.97;;
19780;SDS011;10050;55.492;13.506;2022-07-22T03:17:07;14.00;;;6.97;;
19780;SDS011;10050;55.492;13.506;2022-07-22T03:19:32;7.00;;;4.93;;
19780;SDS011;10050;55.492;13.506;2022-07-22T03:21:58;9.80;;;6.60;;
19780;SDS011;10050;55.492;13.506;2022-07-22T03:24:24;8.33;;;5.93;;
19780;SDS011;10050;55.492;13.506;2022-07-22T03:26:49;10.60;;;6.57;;
19780;SDS011;10050;55.492;13.506;2022-07-22T03:29:15;10.50;;;6.20;;
19780;SDS011;10050;55.492;13.506;2022-07-22T03:31:40;16.60;;;9.93;;
19780;SDS011;10050;55.492;13.506;2022-07-22T03:34:06;13.80;;;9.50;;
19780;SDS011;10050;55.492;13.506;2022-07-22T03:36:31;14.40;;;7.73;;
19780;SDS011;10050;55.492;13.506;2022-07-22T03:38:57;13.80;;;7.93;;
19780;SDS011;10050;55.492;13.506;2022-07-22T03:41:23;10.73;;;7.23;;
19780;SDS011;10050;55.492;13.506;2022-07-22T03:43:48;12.00;;;7.33;;
19780;SDS011;10050;55.492;13.506;2022-07-22T03:46:14;9.47;;;6.90;;
19780;SDS011;10050;55.492;13.506;2022-07-22T03:48:40;12.17;;;7.17;;
19780;SDS011;10050;55.492;13.506;2022-07-22T03:51:06;8.73;;;7.20;;
19780;SDS011;10050;55.492;13.506;2022-07-22T03:53:32;11.87;;;7.50;;
19780;SDS011;10050;55.492;13.506;2022-07-22T03:55:58;14.07;;;7.07;;
19780;SDS011;10050;55.492;13.506;2022-07-22T03:58:24;11.07;;;7.70;;
19780;SDS011;10050;55.492;13.506;2022-07-22T04:00:52;12.47;;;7.07;;
19780;SDS011;10050;55.492;13.506;2022-07-22T04:03:17;12.10;;;7.30;;
19780;SDS011;10050;55.492;13.506;2022-07-22T04:05:43;13.63;;;7.50;;
19780;SDS011;10050;55.492;13.506;2022-07-22T04:08:10;12.10;;;7.23;;
19780;SDS011;10050;55.492;13.506;2022-07-22T04:10:36;10.23;;;7.27;;
19780;SDS011;10050;55.492;13.506;2022-07-22T04:13:02;11.37;;;6.57;;
19780;SDS011;10050;55.492;13.506;2022-07-22T04:15:28;11.87;;;6.17;;
19780;SDS011;10050;55.492;13.506;2022-07-22T04:17:53;8.93;;;5.90;;
19780;SDS011;10050;55.492;13.506;2022-07-22T04:20:19;8.43;;;6.17;;
19780;SDS011;10050;55.492;13.506;2022-07-22T04:22:45;8.73;;;5.93;;
19780;SDS011;10050;55.492;13.506;2022-07-22T04:25:10;10.50;;;5.93;;
19780;SDS011;10050;55.492;13.506;2022-07-22T04:27:36;8.40;;;5.87;;
19780;SDS011;10050;55.492;13.506;2022-07-22T04:30:02;9.50;;;5.90;;
19780;SDS011;10050;55.492;13.506;2022-07-22T04:32:28;6.77;;;4.77;;
19780;SDS011;10050;55.492;13.506;2022-07-22T04:34:54;8.83;;;4.90;;
19780;SDS011;10050;55.492;13.506;2022-07-22T04:37:19;7.40;;;5.03;;
19780;SDS011;10050;55.492;13.506;2022-07-22T04:39:45;7.90;;;5.10;;
19780;SDS011;10050;55.492;13.506;2022-07-22T04:42:10;9.53;;;5.67;;
19780;SDS011;10050;55.492;13.506;2022-07-22T04:44:36;11.50;;;5.43;;
19780;SDS011;10050;55.492;13.506;2022-07-22T04:47:02;11.63;;;5.30;;
19780;SDS011;10050;55.492;13.506;2022-07-22T04:49:28;9.33;;;6.07;;
19780;SDS011;10050;55.492;13.506;2022-07-22T04:51:53;9.83;;;5.23;;
19780;SDS011;10050;55.492;13.506;2022-07-22T04:54:19;7.50;;;4.70;;
19780;SDS011;10050;55.492;13.506;2022-07-22T04:56:44;8.47;;;5.20;;
19780;SDS011;10050;55.492;13.506;2022-07-22T04:59:10;7.10;;;4.97;;
19780;SDS011;10050;55.492;13.506;2022-07-22T05:01:36;8.53;;;4.00;;
19780;SDS011;10050;55.492;13.506;2022-07-22T05:04:01;10.20;;;4.40;;
19780;SDS011;10050;55.492;13.506;2022-07-22T05:06:27;8.23;;;4.13;;
19780;SDS011;10050;55.492;13.506;2022-07-22T05:08:53;8.53;;;4.27;;
19780;SDS011;10050;55.492;13.506;2022-07-22T05:11:19;8.33;;;4.13;;
19780;SDS011;10050;55.492;13.506;2022-07-22T05:13:44;6.53;;;3.50;;
19780;SDS011;10050;55.492;13.506;2022-07-22T05:16:10;5.93;;;3.80;;
19780;SDS011;10050;55.492;13.506;2022-07-22T05:18:35;7.17;;;3.90;;
19780;SDS011;10050;55.492;13.506;2022-07-22T05:21:02;7.63;;;3.70;;
19780;SDS011;10050;55.492;13.506;2022-07-22T05:23:28;7.10;;;3.43;;
19780;SDS011;10050;55.492;13.506;2022-07-22T05:25:54;10.10;;;3.93;;
19780;SDS011;10050;55.492;13.506;2022-07-22T05:28:19;7.80;;;3.53;;
19780;SDS011;10050;55.492;13.506;2022-07-22T05:30:45;10.53;;;3.73;;
19780;SDS011;10050;55.492;13.506;2022-07-22T05:33:11;9.30;;;4.00;;
19780;SDS011;10050;55.492;13.506;2022-07-22T05:35:36;9.20;;;3.80;;
19780;SDS011;10050;55.492;13.506;2022-07-22T05:38:02;9.50;;;3.47;;
19780;SDS011;10050;55.492;13.506;2022-07-22T05:40:28;7.37;;;3.63;;
19780;SDS011;10050;55.492;13.506;2022-07-22T05:42:55;12.57;;;3.63;;
19780;SDS011;10050;55.492;13.506;2022-07-22T05:45:20;9.70;;;3.83;;
19780;SDS011;10050;55.492;13.506;2022-07-22T05:47:46;13.93;;;3.30;;
19780;SDS011;10050;55.492;13.506;2022-07-22T05:50:12;10.27;;;3.30;;
19780;SDS011;10050;55.492;13.506;2022-07-22T05:52:38;8.23;;;3.13;;
19780;SDS011;10050;55.492;13.506;2022-07-22T05:55:04;11.87;;;3.87;;
19780;SDS011;10050;55.492;13.506;2022-07-22T05:57:30;12.07;;;3.33;;
19780;SDS011;10050;55.492;13.506;2022-07-22T05:59:56;9.37;;;3.40;;
19780;SDS011;10050;55.492;13.506;2022-07-22T06:02:21;12.50;;;4.30;;
19780;SDS011;10050;55.492;13.506;2022-07-22T06:04:47;10.80;;;3.33;;
19780;SDS011;10050;55.492;13.506;2022-07-22T06:07:13;8.67;;;3.10;;
19780;SDS011;10050;55.492;13.506;2022-07-22T06:09:38;10.77;;;3.63;;
19780;SDS011;10050;55.492;13.506;2022-07-22T06:12:04;6.17;;;3.23;;
19780;SDS011;10050;55.492;13.506;2022-07-22T06:14:30;6.07;;;2.63;;
19780;SDS011;10050;55.492;13.506;2022-07-22T06:16:56;16.27;;;3.50;;
19780;SDS011;10050;55.492;13.506;2022-07-22T06:19:22;11.20;;;3.07;;
19780;SDS011;10050;55.492;13.506;2022-07-22T06:21:49;6.87;;;2.70;;
19780;SDS011;10050;55.492;13.506;2022-07-22T06:24:15;7.27;;;2.77;;
19780;SDS011;10050;55.492;13.506;2022-07-22T06:26:40;5.73;;;2.93;;
19780;SDS011;10050;55.492;13.506;2022-07-22T06:29:06;8.57;;;3.07;;
19780;SDS011;10050;55.492;13.506;2022-07-22T06:31:32;7.73;;;3.27;;
19780;SDS011;10050;55.492;13.506;2022-07-22T06:33:57;7.03;;;2.90;;
19780;SDS011;10050;55.492;13.506;2022-07-22T06:36:23;10.10;;;2.90;;
19780;SDS011;10050;55.492;13.506;2022-07-22T06:38:49;4.47;;;2.10;;
19780;SDS011;10050;55.492;13.506;2022-07-22T06:41:14;9.00;;;2.90;;
19780;SDS011;10050;55.492;13.506;2022-07-22T06:43:44;11.77;;;2.80;;
19780;SDS011;10050;55.492;13.506;2022-07-22T06:46:10;8.67;;;2.70;;
19780;SDS011;10050;55.492;13.506;2022-07-22T06:48:35;6.93;;;3.23;;
19780;SDS011;10050;55.492;13.506;2022-07-22T06:51:01;8.13;;;3.27;;
19780;SDS011;10050;55.492;13.506;2022-07-22T06:53:27;8.17;;;2.83;;
19780;SDS011;10050;55.492;13.506;2022-07-22T06:55:53;8.43;;;2.37;;
19780;SDS011;10050;55.492;13.506;2022-07-22T06:58:18;6.87;;;2.63;;
19780;SDS011;10050;55.492;13.506;2022-07-22T07:00:44;7.87;;;2.70;;
19780;SDS011;10050;55.492;13.506;2022-07-22T07:03:10;7.90;;;2.93;;
19780;SDS011;10050;55.492;13.506;2022-07-22T07:05:35;9.97;;;3.00;;
19780;SDS011;10050;55.492;13.506;2022-07-22T07:08:01;5.37;;;2.77;;
19780;SDS011;10050;55.492;13.506;2022-07-22T07:10:27;9.07;;;3.47;;
19780;SDS011;10050;55.492;13.506;2022-07-22T07:12:56;8.33;;;2.87;;
19780;SDS011;10050;55.492;13.506;2022-07-22T07:15:25;7.83;;;2.67;;
19780;SDS011;10050;55.492;13.506;2022-07-22T07:17:52;9.03;;;2.70;;
19780;SDS011;10050;55.492;13.506;2022-07-22T07:20:19;10.43;;;2.90;;
19780;SDS011;10050;55.492;13.506;2022-07-22T07:22:44;5.83;;;2.33;;
19780;SDS011;10050;55.492;13.506;2022-07-22T07:25:10;9.07;;;2.50;;
19780;SDS011;10050;55.492;13.506;2022-07-22T07:27:36;5.13;;;2.43;;
19780;SDS011;10050;55.492;13.506;2022-07-22T07:30:03;8.37;;;2.83;;
19780;SDS011;10050;55.492;13.506;2022-07-22T07:32:30;9.00;;;2.70;;
19780;SDS011;10050;55.492;13.506;2022-07-22T07:34:56;8.77;;;2.50;;
19780;SDS011;10050;55.492;13.506;2022-07-22T07:37:21;8.00;;;2.77;;
19780;SDS011;10050;55.492;13.506;2022-07-22T07:39:47;8.10;;;3.27;;
19780;SDS011;10050;55.492;13.506;2022-07-22T07:42:13;7.30;;;2.60;;
19780;SDS011;10050;55.492;13.506;2022-07-22T07:44:39;10.03;;;2.87;;
19780;SDS011;10050;55.492;13.506;2022-07-22T07:47:04;12.03;;;2.53;;
19780;SDS011;10050;55.492;13.506;2022-07-22T07:49:30;6.37;;;2.53;;
19780;SDS011;10050;55.492;13.506;2022-07-22T07:51:56;7.83;;;2.70;;
19780;SDS011;10050;55.492;13.506;2022-07-22T07:54:21;7.77;;;2.73;;
19780;SDS011;10050;55.492;13.506;2022-07-22T07:56:47;5.83;;;2.10;;
19780;SDS011;10050;55.492;13.506;2022-07-22T07:59:13;5.70;;;2.30;;
19780;SDS011;10050;55.492;13.506;2022-07-22T08:01:39;7.47;;;2.73;;
19780;SDS011;10050;55.492;13.506;2022-07-22T08:04:04;9.87;;;2.80;;
19780;SDS011;10050;55.492;13.506;2022-07-22T08:06:30;8.70;;;2.70;;
19780;SDS011;10050;55.492;13.506;2022-07-22T08:08:56;6.17;;;2.43;;
19780;SDS011;10050;55.492;13.506;2022-07-22T08:11:21;7.30;;;2.33;;
19780;SDS011;10050;55.492;13.506;2022-07-22T08:13:48;6.93;;;2.43;;
19780;SDS011;10050;55.492;13.506;2022-07-22T08:16:14;10.20;;;2.90;;
19780;SDS011;10050;55.492;13.506;2022-07-22T08:18:39;8.17;;;2.47;;
19780;SDS011;10050;55.492;13.506;2022-07-22T08:21:05;7.37;;;2.30;;
19780;SDS011;10050;55.492;13.506;2022-07-22T08:23:31;11.23;;;2.73;;
19780;SDS011;10050;55.492;13.506;2022-07-22T08:25:57;10.03;;;3.00;;
19780;SDS011;10050;55.492;13.506;2022-07-22T08:28:23;5.33;;;2.40;;
19780;SDS011;10050;55.492;13.506;2022-07-22T08:30:49;8.87;;;2.43;;
19780;SDS011;10050;55.492;13.506;2022-07-22T08:33:15;8.70;;;2.73;;
19780;SDS011;10050;55.492;13.506;2022-07-22T08:35:40;7.73;;;2.80;;
19780;SDS011;10050;55.492;13.506;2022-07-22T08:38:06;6.33;;;2.53;;
19780;SDS011;10050;55.492;13.506;2022-07-22T08:40:32;3.53;;;2.20;;
19780;SDS011;10050;55.492;13.506;2022-07-22T08:42:58;6.97;;;2.63;;
19780;SDS011;10050;55.492;13.506;2022-07-22T08:45:28;8.20;;;2.57;;
19780;SDS011;10050;55.492;13.506;2022-07-22T08:47:57;6.00;;;2.30;;
19780;SDS011;10050;55.492;13.506;2022-07-22T08:50:24;8.13;;;2.77;;
19780;SDS011;10050;55.492;13.506;2022-07-22T08:52:50;6.37;;;2.30;;
19780;SDS011;10050;55.492;13.506;2022-07-22T08:55:15;6.50;;;2.57;;
19780;SDS011;10050;55.492;13.506;2022-07-22T08:57:47;9.40;;;2.87;;
19780;SDS011;10050;55.492;13.506;2022-07-22T09:00:15;7.03;;;2.77;;
19780;SDS011;10050;55.492;13.506;2022-07-22T09:02:46;8.20;;;2.10;;
19780;SDS011;10050;55.492;13.506;2022-07-22T09:05:12;5.43;;;2.60;;
19780;SDS011;10050;55.492;13.506;2022-07-22T09:07:40;5.80;;;2.00;;
19780;SDS011;10050;55.492;13.506;2022-07-22T09:10:08;7.70;;;2.40;;
19780;SDS011;10050;55.492;13.506;2022-07-22T09:12:55;6.13;;;2.47;;
19780;SDS011;10050;55.492;13.506;2022-07-22T09:15:33;5.90;;;2.00;;
19780;SDS011;10050;55.492;13.506;2022-07-22T09:18:01;6.53;;;2.53;;
19780;SDS011;10050;55.492;13.506;2022-07-22T09:20:28;4.63;;;2.43;;
19780;SDS011;10050;55.492;13.506;2022-07-22T09:22:54;5.17;;;2.30;;
19780;SDS011;10050;55.492;13.506;2022-07-22T09:28:08;8.37;;;2.83;;
19780;SDS011;10050;55.492;13.506;2022-07-22T09:30:37;6.93;;;2.40;;
19780;SDS011;10050;55.492;13.506;2022-07-22T09:33:11;8.83;;;2.83;;
19780;SDS011;10050;55.492;13.506;2022-07-22T09:35:37;7.03;;;2.10;;
19780;SDS011;10050;55.492;13.506;2022-07-22T09:38:05;5.47;;;2.50;;
19780;SDS011;10050;55.492;13.506;2022-07-22T09:40:33;6.13;;;2.43;;
19780;SDS011;10050;55.492;13.506;2022-07-22T09:43:03;7.70;;;2.87;;
19780;SDS011;10050;55.492;13.506;2022-07-22T09:45:31;7.87;;;3.20;;
19780;SDS011;10050;55.492;13.506;2022-07-22T09:47:59;6.57;;;2.83;;
19780;SDS011;10050;55.492;13.506;2022-07-22T09:50:27;7.27;;;2.47;;
19780;SDS011;10050;55.492;13.506;2022-07-22T09:52:54;6.10;;;2.63;;
19780;SDS011;10050;55.492;13.506;2022-07-22T09:55:22;8.07;;;2.63;;
19780;SDS011;10050;55.492;13.506;2022-07-22T09:57:50;6.87;;;2.90;;
19780;SDS011;10050;55.492;13.506;2022-07-22T10:00:18;6.47;;;2.00;;
19780;SDS011;10050;55.492;13.506;2022-07-22T10:02:46;7.17;;;2.33;;
19780;SDS011;10050;55.492;13.506;2022-07-22T10:05:15;5.93;;;2.00;;
19780;SDS011;10050;55.492;13.506;2022-07-22T10:07:46;9.33;;;2.50;;
19780;SDS011;10050;55.492;13.506;2022-07-22T10:10:14;5.57;;;2.33;;
19780;SDS011;10050;55.492;13.506;2022-07-22T10:12:44;7.37;;;2.57;;
19780;SDS011;10050;55.492;13.506;2022-07-22T10:15:12;6.00;;;2.10;;
19780;SDS011;10050;55.492;13.506;2022-07-22T10:17:40;7.10;;;2.37;;
19780;SDS011;10050;55.492;13.506;2022-07-22T10:20:07;4.17;;;2.37;;
19780;SDS011;10050;55.492;13.506;2022-07-22T10:25:06;3.40;;;1.77;;
19780;SDS011;10050;55.492;13.506;2022-07-22T10:27:48;6.07;;;2.00;;
19780;SDS011;10050;55.492;13.506;2022-07-22T10:30:16;3.90;;;2.30;;
19780;SDS011;10050;55.492;13.506;2022-07-22T10:35:30;5.00;;;2.23;;
19780;SDS011;10050;55.492;13.506;2022-07-22T10:37:58;7.50;;;2.30;;
19780;SDS011;10050;55.492;13.506;2022-07-22T10:40:27;3.40;;;2.03;;
19780;SDS011;10050;55.492;13.506;2022-07-22T10:45:39;7.03;;;2.53;;
19780;SDS011;10050;55.492;13.506;2022-07-22T10:48:08;7.73;;;2.67;;
19780;SDS011;10050;55.492;13.506;2022-07-22T10:53:03;5.20;;;1.97;;
19780;SDS011;10050;55.492;13.506;2022-07-22T10:55:30;5.20;;;2.50;;
19780;SDS011;10050;55.492;13.506;2022-07-22T10:57:56;6.27;;;2.60;;
19780;SDS011;10050;55.492;13.506;2022-07-22T11:00:21;4.47;;;2.00;;
19780;SDS011;10050;55.492;13.506;2022-07-22T11:02:47;5.40;;;2.10;;
19780;SDS011;10050;55.492;13.506;2022-07-22T11:05:14;4.17;;;1.80;;
19780;SDS011;10050;55.492;13.506;2022-07-22T11:07:49;5.37;;;2.37;;
19780;SDS011;10050;55.492;13.506;2022-07-22T11:10:18;7.97;;;2.23;;
19780;SDS011;10050;55.492;13.506;2022-07-22T11:12:48;5.80;;;2.50;;
19780;SDS011;10050;55.492;13.506;2022-07-22T11:15:15;7.00;;;2.73;;
19780;SDS011;10050;55.492;13.506;2022-07-22T11:17:41;6.23;;;2.20;;
19780;SDS011;10050;55.492;13.506;2022-07-22T11:20:08;5.43;;;2.60;;
19780;SDS011;10050;55.492;13.506;2022-07-22T11:22:36;5.97;;;1.93;;
19780;SDS011;10050;55.492;13.506;2022-07-22T11:25:04;9.00;;;2.90;;
19780;SDS011;10050;55.492;13.506;2022-07-22T11:27:32;6.43;;;2.27;;
19780;SDS011;10050;55.492;13.506;2022-07-22T11:29:58;6.77;;;2.27;;
19780;SDS011;10050;55.492;13.506;2022-07-22T11:32:24;7.13;;;2.00;;
19780;SDS011;10050;55.492;13.506;2022-07-22T11:34:57;5.03;;;1.87;;
19780;SDS011;10050;55.492;13.506;2022-07-22T11:37:24;3.57;;;2.10;;
19780;SDS011;10050;55.492;13.506;2022-07-22T11:39:51;5.43;;;2.40;;
19780;SDS011;10050;55.492;13.506;2022-07-22T11:42:24;8.50;;;2.17;;
19780;SDS011;10050;55.492;13.506;2022-07-22T11:44:51;8.47;;;2.20;;
19780;SDS011;10050;55.492;13.506;2022-07-22T11:47:16;6.80;;;2.40;;
19780;SDS011;10050;55.492;13.506;2022-07-22T11:49:45;9.17;;;1.87;;
19780;SDS011;10050;55.492;13.506;2022-07-22T11:52:13;6.10;;;2.03;;
19780;SDS011;10050;55.492;13.506;2022-07-22T11:54:42;3.67;;;1.20;;
19780;SDS011;10050;55.492;13.506;2022-07-22T11:57:08;2.40;;;1.40;;
19780;SDS011;10050;55.492;13.506;2022-07-22T11:59:34;5.13;;;1.70;;
19780;SDS011;10050;55.492;13.506;2022-07-22T12:02:00;3.43;;;1.37;;
19780;SDS011;10050;55.492;13.506;2022-07-22T12:04:27;3.00;;;1.50;;
19780;SDS011;10050;55.492;13.506;2022-07-22T12:06:54;4.80;;;2.00;;
19780;SDS011;10050;55.492;13.506;2022-07-22T12:09:24;4.37;;;2.00;;
19780;SDS011;10050;55.492;13.506;2022-07-22T12:11:53;8.37;;;2.07;;
19780;SDS011;10050;55.492;13.506;2022-07-22T12:14:23;8.00;;;2.37;;
19780;SDS011;10050;55.492;13.506;2022-07-22T12:16:57;7.83;;;3.00;;
19780;SDS011;10050;55.492;13.506;2022-07-22T12:19:24;8.27;;;2.50;;
19780;SDS011;10050;55.492;13.506;2022-07-22T12:22:04;6.37;;;2.00;;
19780;SDS011;10050;55.492;13.506;2022-07-22T12:24:33;8.27;;;2.30;;
19780;SDS011;10050;55.492;13.506;2022-07-22T12:27:07;5.30;;;2.10;;
19780;SDS011;10050;55.492;13.506;2022-07-22T12:29:44;7.33;;;2.67;;
19780;SDS011;10050;55.492;13.506;2022-07-22T12:37:19;9.40;;;2.30;;
19780;SDS011;10050;55.492;13.506;2022-07-22T12:43:16;8.10;;;2.20;;
19780;SDS011;10050;55.492;13.506;2022-07-22T12:45:28;7.20;;;2.50;;
19780;SDS011;10050;55.492;13.506;2022-07-22T12:50:30;8.43;;;2.53;;
19780;SDS011;10050;55.492;13.506;2022-07-22T12:55:29;7.87;;;2.23;;
19780;SDS011;10050;55.492;13.506;2022-07-22T12:57:55;7.33;;;2.20;;
19780;SDS011;10050;55.492;13.506;2022-07-22T13:00:22;5.80;;;2.47;;
19780;SDS011;10050;55.492;13.506;2022-07-22T13:03:00;5.97;;;2.20;;
19780;SDS011;10050;55.492;13.506;2022-07-22T13:05:26;6.63;;;1.93;;
19780;SDS011;10050;55.492;13.506;2022-07-22T13:07:52;4.77;;;2.30;;
19780;SDS011;10050;55.492;13.506;2022-07-22T13:10:19;7.23;;;2.43;;
19780;SDS011;10050;55.492;13.506;2022-07-22T13:12:48;5.13;;;1.70;;
19780;SDS011;10050;55.492;13.506;2022-07-22T13:15:14;7.30;;;2.20;;
19780;SDS011;10050;55.492;13.506;2022-07-22T13:17:40;7.20;;;2.07;;
19780;SDS011;10050;55.492;13.506;2022-07-22T13:20:07;6.30;;;2.33;;
19780;SDS011;10050;55.492;13.506;2022-07-22T13:22:34;7.60;;;1.90;;
19780;SDS011;10050;55.492;13.506;2022-07-22T13:25:00;7.07;;;2.10;;
19780;SDS011;10050;55.492;13.506;2022-07-22T13:27:25;5.93;;;2.23;;
19780;SDS011;10050;55.492;13.506;2022-07-22T13:29:51;8.53;;;2.30;;
19780;SDS011;10050;55.492;13.506;2022-07-22T13:32:17;6.43;;;2.07;;
19780;SDS011;10050;55.492;13.506;2022-07-22T13:34:42;10.23;;;2.10;;
19780;SDS011;10050;55.492;13.506;2022-07-22T13:37:08;10.97;;;1.93;;
19780;SDS011;10050;55.492;13.506;2022-07-22T13:39:34;9.03;;;1.97;;
19780;SDS011;10050;55.492;13.506;2022-07-22T13:41:59;7.57;;;1.93;;
19780;SDS011;10050;55.492;13.506;2022-07-22T13:44:25;6.57;;;2.00;;
19780;SDS011;10050;55.492;13.506;2022-07-22T13:46:51;7.63;;;2.07;;
19780;SDS011;10050;55.492;13.506;2022-07-22T13:49:16;6.10;;;1.60;;
19780;SDS011;10050;55.492;13.506;2022-07-22T13:51:42;6.07;;;1.80;;
19780;SDS011;10050;55.492;13.506;2022-07-22T13:54:08;7.93;;;2.30;;
19780;SDS011;10050;55.492;13.506;2022-07-22T13:56:34;6.57;;;1.90;;
19780;SDS011;10050;55.492;13.506;2022-07-22T13:59:00;10.20;;;2.00;;
19780;SDS011;10050;55.492;13.506;2022-07-22T14:01:27;6.23;;;2.03;;
19780;SDS011;10050;55.492;13.506;2022-07-22T14:03:53;6.83;;;1.83;;
19780;SDS011;10050;55.492;13.506;2022-07-22T14:06:19;3.33;;;1.50;;
19780;SDS011;10050;55.492;13.506;2022-07-22T14:08:45;6.67;;;1.80;;
19780;SDS011;10050;55.492;13.506;2022-07-22T14:11:10;6.93;;;1.90;;
19780;SDS011;10050;55.492;13.506;2022-07-22T14:13:36;8.63;;;2.07;;
19780;SDS011;10050;55.492;13.506;2022-07-22T14:16:02;5.80;;;1.73;;
19780;SDS011;10050;55.492;13.506;2022-07-22T14:18:46;7.27;;;1.73;;
19780;SDS011;10050;55.492;13.506;2022-07-22T14:21:12;6.83;;;1.87;;
19780;SDS011;10050;55.492;13.506;2022-07-22T14:23:38;7.77;;;1.80;;
19780;SDS011;10050;55.492;13.506;2022-07-22T14:26:04;3.70;;;1.20;;
19780;SDS011;10050;55.492;13.506;2022-07-22T14:28:30;6.17;;;1.83;;
19780;SDS011;10050;55.492;13.506;2022-07-22T14:30:56;5.87;;;1.83;;
19780;SDS011;10050;55.492;13.506;2022-07-22T14:33:22;7.67;;;1.60;;
19780;SDS011;10050;55.492;13.506;2022-07-22T14:35:48;4.13;;;1.83;;
19780;SDS011;10050;55.492;13.506;2022-07-22T14:38:14;3.73;;;1.40;;
19780;SDS011;10050;55.492;13.506;2022-07-22T14:40:40;4.10;;;1.50;;
19780;SDS011;10050;55.492;13.506;2022-07-22T14:43:05;2.63;;;1.50;;
19780;SDS011;10050;55.492;13.506;2022-07-22T14:45:31;4.50;;;1.70;;
19780;SDS011;10050;55.492;13.506;2022-07-22T14:47:57;5.10;;;1.70;;
19780;SDS011;10050;55.492;13.506;2022-07-22T14:50:22;5.57;;;1.67;;
19780;SDS011;10050;55.492;13.506;2022-07-22T14:52:48;3.87;;;1.43;;
19780;SDS011;10050;55.492;13.506;2022-07-22T14:55:14;7.83;;;1.87;;
19780;SDS011;10050;55.492;13.506;2022-07-22T14:57:39;4.27;;;1.23;;